Time;durP1;ratioP1;P1;durP2;ratioP2;P2;SDS_P1;SDS_P2;PMS_P1;PMS_P2;Temp;Humidity;BMP_temperature;BMP_pressure;BME280_temperature;BME280_humidity;BME280_pressure;Samples;Min_cycle;Max_cycle;Signal;HPM_P1;HPM_P2
2021/06/03 00:01:24;;;;;;;18.23;11.90;;;;;;;13.37;53.82;101283.39;129011;1091;24466;-76
2021/06/03 00:03:54;;;;;;;17.55;12.58;;;;;;;13.34;53.87;101288.20;129053;1092;22351;-81
2021/06/03 00:06:23;;;;;;;18.55;14.18;;;;;;;13.30;54.15;101279.73;129046;1091;24300;-75
2021/06/03 00:08:53;;;;;;;17.78;12.73;;;;;;;13.25;54.24;101284.69;129077;1092;24546;-75
2021/06/03 00:11:23;;;;;;;17.05;12.63;;;;;;;13.22;54.34;101279.66;129055;1092;24553;-75
2021/06/03 00:13:52;;;;;;;19.33;12.78;;;;;;;13.17;54.54;101276.69;129054;1093;22334;-77
2021/06/03 00:16:22;;;;;;;21.20;12.53;;;;;;;13.17;54.83;101284.64;129030;1092;22339;-76
2021/06/03 00:18:52;;;;;;;14.60;10.85;;;;;;;13.17;55.52;101281.98;128651;1097;22351;-76
2021/06/03 00:21:22;;;;;;;13.60;11.45;;;;;;;13.19;55.19;101285.30;128732;1096;22419;-77
2021/06/03 00:23:51;;;;;;;19.68;12.73;;;;;;;13.19;55.16;101286.16;128735;1093;22358;-76
2021/06/03 00:26:21;;;;;;;30.15;13.60;;;;;;;13.21;55.18;101293.11;129023;1095;22356;-76
2021/06/03 00:28:51;;;;;;;19.03;12.75;;;;;;;13.17;55.13;101293.42;128692;1095;22740;-76
2021/06/03 00:31:21;;;;;;;17.50;13.60;;;;;;;13.13;54.88;101291.27;128717;1095;22358;-76
2021/06/03 00:33:52;;;;;;;18.68;13.00;;;;;;;13.07;55.30;101290.09;128696;1095;22336;-77
2021/06/03 00:36:22;;;;;;;23.98;14.03;;;;;;;13.01;55.57;101293.38;128704;1094;24252;-76
2021/06/03 00:38:51;;;;;;;18.75;14.08;;;;;;;12.99;55.17;101297.17;129101;1092;22347;-77
2021/06/03 00:41:22;;;;;;;21.10;14.08;;;;;;;12.93;55.29;101293.36;129033;1094;22348;-75
2021/06/03 00:43:52;;;;;;;17.53;14.20;;;;;;;12.86;55.48;101297.61;129016;1092;22327;-76
2021/06/03 00:46:22;;;;;;;19.03;16.15;;;;;;;12.80;55.86;101293.80;129049;1094;22324;-75
2021/06/03 00:48:53;;;;;;;18.53;15.40;;;;;;;12.74;55.85;101294.43;129018;1094;22452;-76
2021/06/03 00:51:26;;;;;;;20.08;14.40;;;;;;;12.70;56.05;101301.05;129050;1092;22627;-76
2021/06/03 00:53:56;;;;;;;19.40;14.15;;;;;;;12.67;56.30;101293.41;129018;1095;22776;-76
2021/06/03 00:56:26;;;;;;;18.20;13.73;;;;;;;12.68;56.45;101295.89;128678;1095;22497;-77
2021/06/03 00:58:56;;;;;;;20.68;14.98;;;;;;;12.69;56.72;101294.92;129032;1095;22789;-76
2021/06/03 01:01:30;;;;;;;20.95;15.55;;;;;;;12.70;57.10;101293.92;128751;1093;23234;-77
2021/06/03 01:04:00;;;;;;;19.50;15.13;;;;;;;12.67;56.80;101293.41;128706;1095;22371;-77
2021/06/03 01:06:30;;;;;;;21.85;16.38;;;;;;;12.62;56.68;101288.56;128684;1095;22380;-76
2021/06/03 01:09:01;;;;;;;21.63;17.23;;;;;;;12.60;56.60;101287.08;128732;1095;22786;-76
2021/06/03 01:12:08;;;;;;;20.85;15.88;;;;;;;12.56;56.70;101289.22;128691;1094;22358;-76
2021/06/03 01:14:45;;;;;;;22.03;17.60;;;;;;;12.49;56.96;101288.16;128446;1098;22369;-77
2021/06/03 01:17:18;;;;;;;24.10;17.40;;;;;;;12.45;56.83;101289.47;128364;1098;22345;-76
2021/06/03 01:19:51;;;;;;;22.13;17.18;;;;;;;12.42;56.96;101287.95;128387;1098;22923;-77
2021/06/03 01:23:06;;;;;;;18.75;16.33;;;;;;;12.39;56.86;101284.80;128294;1097;22368;-76
2021/06/03 01:25:41;;;;;;;25.68;16.50;;;;;;;12.35;57.25;101288.75;128287;1096;22372;-77
2021/06/03 01:28:12;;;;;;;23.07;18.63;;;;;;;12.31;57.18;101285.58;128284;1096;22386;-76
2021/06/03 01:30:46;;;;;;;28.65;18.40;;;;;;;12.30;57.44;101280.45;128407;1099;22367;-77
2021/06/03 01:33:21;;;;;;;21.05;18.33;;;;;;;12.31;57.64;101280.28;128360;1098;22478;-75
2021/06/03 01:36:00;;;;;;;22.63;19.18;;;;;;;12.31;57.79;101288.23;128445;1095;22355;-77
2021/06/03 01:38:37;;;;;;;24.23;17.85;;;;;;;12.31;57.21;101287.41;128602;1098;22345;-77
2021/06/03 01:41:11;;;;;;;22.18;19.08;;;;;;;12.27;57.57;101284.23;128580;1098;22537;-76
2021/06/03 01:43:46;;;;;;;23.93;19.88;;;;;;;12.22;57.47;101297.94;128623;1098;22374;-76
2021/06/03 01:46:16;;;;;;;23.95;19.15;;;;;;;12.19;57.62;101295.59;128608;1095;22456;-76
2021/06/03 01:48:46;;;;;;;21.23;17.58;;;;;;;12.18;57.85;101291.29;128564;1098;22825;-77
2021/06/03 01:51:19;;;;;;;21.30;17.15;;;;;;;12.16;57.85;101287.98;128702;1095;23275;-76
2021/06/03 01:53:49;;;;;;;21.05;18.25;;;;;;;12.15;58.17;101288.13;129072;1094;22324;-75
2021/06/03 01:56:19;;;;;;;24.90;18.25;;;;;;;12.12;57.82;101289.25;129093;1092;22345;-76
2021/06/03 01:58:50;;;;;;;24.43;19.10;;;;;;;12.10;58.10;101287.77;128628;1096;22361;-76
2021/06/03 02:01:20;;;;;;;25.05;17.70;;;;;;;12.09;58.23;101294.03;128685;1095;24230;-76
2021/06/03 02:03:50;;;;;;;22.95;19.10;;;;;;;12.05;58.26;101285.57;128654;1095;22818;-77
2021/06/03 02:06:20;;;;;;;23.45;18.95;;;;;;;12.04;58.26;101294.51;128695;1095;23287;-76
2021/06/03 02:08:51;;;;;;;24.43;20.60;;;;;;;11.99;58.14;101291.48;128655;1095;22343;-77
2021/06/03 02:11:22;;;;;;;29.95;21.00;;;;;;;11.93;58.26;101297.41;128678;1095;23216;-74
2021/06/03 02:13:59;;;;;;;23.30;19.45;;;;;;;11.89;58.53;101294.21;128729;1094;22342;-75
2021/06/03 02:16:44;;;;;;;;;;;;;;;11.83;58.48;101296.61;128717;1092;22355;-75
2021/06/03 02:19:26;;;;;;;24.50;19.00;;;;;;;11.80;58.71;101299.59;129038;1094;21261;-75
2021/06/03 02:21:57;;;;;;;;;;;;;;;11.75;58.47;101300.03;129069;1092;24530;-75
2021/06/03 02:24:28;;;;;;;32.78;22.15;;;;;;;11.72;58.94;101306.45;128950;1092;21258;-76
2021/06/03 02:27:00;;;;;;;28.60;20.73;;;;;;;11.75;59.03;101302.67;129062;1091;22336;-75
2021/06/03 02:29:31;;;;;;;22.28;20.05;;;;;;;11.74;58.89;101301.84;129049;1091;24307;-76
2021/06/03 02:32:15;;;;;;;31.13;24.45;;;;;;;11.74;58.48;101307.14;128989;1095;22714;-75
2021/06/03 02:34:48;;;;;;;29.40;23.70;;;;;;;11.72;58.78;101310.91;128656;1095;22449;-74
2021/06/03 02:37:19;;;;;;;25.70;22.98;;;;;;;11.71;59.10;101320.67;128630;1097;22352;-75
2021/06/03 02:39:58;;;;;;;27.85;24.25;;;;;;;11.69;58.88;101313.86;128560;1096;22406;-75
2021/06/03 02:42:28;;;;;;;30.30;24.15;;;;;;;11.66;59.04;101322.96;128643;1098;22449;-76
2021/06/03 02:44:58;;;;;;;24.90;22.25;;;;;;;11.66;59.23;101322.10;128600;1098;22392;-75
2021/06/03 02:47:28;;;;;;;27.58;24.23;;;;;;;11.63;59.46;101312.67;128571;1099;22737;-76
2021/06/03 02:49:58;;;;;;;27.10;23.50;;;;;;;11.67;59.61;101321.97;128600;1098;22668;-77
2021/06/03 02:52:28;;;;;;;30.00;22.58;;;;;;;11.68;59.46;101326.27;128612;1095;22672;-75
2021/06/03 02:54:57;;;;;;;26.83;22.70;;;;;;;11.68;59.83;101318.33;128659;1095;22437;-75
2021/06/03 02:57:27;;;;;;;25.40;22.70;;;;;;;11.70;59.79;101326.96;128591;1098;23245;-75
2021/06/03 02:59:59;;;;;;;37.78;25.53;;;;;;;11.69;59.76;101327.92;128667;1094;23294;-75
2021/06/03 03:02:29;;;;;;;33.10;26.70;;;;;;;11.69;59.58;101330.57;129016;1094;22333;-76
2021/06/03 03:04:59;;;;;;;31.38;26.20;;;;;;;11.69;59.56;101332.39;129016;1094;22373;-76
2021/06/03 03:07:32;;;;;;;33.83;26.47;;;;;;;11.66;59.57;101336.20;129014;1094;22346;-77
2021/06/03 03:10:09;;;;;;;31.10;27.35;;;;;;;11.62;59.78;101332.16;129008;1091;24978;-76
2021/06/03 03:12:40;;;;;;;28.48;25.40;;;;;;;11.60;59.86;101338.61;129063;1092;23100;-77
2021/06/03 03:15:16;;;;;;;29.80;26.63;;;;;;;11.60;59.90;101338.61;129008;1092;22329;-76
2021/06/03 03:17:48;;;;;;;31.08;27.05;;;;;;;11.63;60.27;101343.58;129109;1091;25051;-76
2021/06/03 03:20:21;;;;;;;31.30;27.98;;;;;;;11.69;60.34;101345.63;128620;1097;22348;-76
2021/06/03 03:22:54;;;;;;;33.80;29.28;;;;;;;11.72;60.34;101332.92;128598;1098;22342;-77
2021/06/03 03:25:28;;;;;;;33.00;29.63;;;;;;;11.72;60.16;101346.16;128699;1098;22445;-75
2021/06/03 03:28:06;;;;;;;38.38;30.28;;;;;;;11.70;60.20;101342.84;128672;1095;22356;-74
2021/06/03 03:30:42;;;;;;;33.08;28.23;;;;;;;11.70;60.28;101344.66;128715;1097;22368;-75
2021/06/03 03:33:17;;;;;;;36.00;29.98;;;;;;;11.70;60.25;101339.38;128581;1098;23567;-75
2021/06/03 03:35:47;;;;;;;40.53;34.05;;;;;;;11.69;60.29;101346.45;128659;1095;22801;-76
2021/06/03 03:38:21;;;;;;;38.70;31.45;;;;;;;11.70;60.47;101347.31;128707;1095;22363;-75
2021/06/03 03:40:53;;;;;;;34.38;29.48;;;;;;;11.72;60.59;101354.09;129018;1092;22438;-76
2021/06/03 03:43:26;;;;;;;37.13;31.05;;;;;;;11.79;60.53;101349.03;129031;1095;22345;-75
2021/06/03 03:45:55;;;;;;;35.55;31.75;;;;;;;11.82;60.11;101350.55;129028;1094;23295;-76
2021/06/03 03:48:26;;;;;;;34.85;31.35;;;;;;;11.86;60.29;101346.64;129147;1094;22341;-76
2021/06/03 03:50:56;;;;;;;35.23;31.68;;;;;;;11.90;60.30;101351.50;129015;1091;24300;-77
2021/06/03 03:53:30;;;;;;;36.28;32.33;;;;;;;11.95;60.16;101353.68;129049;1092;23195;-76
2021/06/03 03:56:00;;;;;;;37.55;33.63;;;;;;;12.00;60.14;101348.77;129006;1095;22664;-76
2021/06/03 03:58:36;;;;;;;37.80;33.95;;;;;;;12.03;59.98;101353.77;128993;1095;22366;-76
2021/06/03 04:01:07;;;;;;;35.43;31.80;;;;;;;12.10;60.04;101370.70;128704;1095;22327;-76
2021/06/03 04:03:39;;;;;;;;;;;;;;;12.12;59.95;101366.06;129027;1095;22361;-75
2021/06/03 04:06:10;;;;;;;40.03;32.13;;;;;;;12.14;60.10;101358.81;128593;1098;22128;-76
2021/06/03 04:08:40;;;;;;;36.15;29.88;;;;;;;12.25;60.07;101369.16;128315;1095;24472;-76
2021/06/03 04:11:10;;;;;;;36.63;29.73;;;;;;;12.39;59.97;101369.59;128650;1098;22336;-76
2021/06/03 04:13:43;;;;;;;33.50;29.73;;;;;;;12.49;59.64;101367.67;128563;1095;24469;-75
2021/06/03 04:16:14;;;;;;;38.35;29.85;;;;;;;12.58;59.39;101374.70;128626;1095;22418;-76
2021/06/03 04:18:45;;;;;;;31.50;28.08;;;;;;;12.67;59.38;101368.46;128575;1095;22803;-75
2021/06/03 04:21:15;;;;;;;29.48;24.03;;;;;;;12.77;58.84;101380.78;129043;1095;23377;-76
2021/06/03 04:23:45;;;;;;;35.28;25.30;;;;;;;12.86;58.77;101380.67;129045;1092;22350;-75
2021/06/03 04:26:16;;;;;;;25.33;22.68;;;;;;;12.91;58.37;101388.15;129042;1095;22325;-75
2021/06/03 04:28:46;;;;;;;27.78;22.65;;;;;;;12.95;58.22;101389.49;129012;1094;22436;-76
2021/06/03 04:31:15;;;;;;;24.38;20.13;;;;;;;13.00;58.16;101381.91;129045;1091;22356;-76
2021/06/03 04:33:45;;;;;;;24.75;19.30;;;;;;;13.06;57.94;101383.93;129015;1095;22665;-77
2021/06/03 04:36:15;;;;;;;23.10;18.33;;;;;;;13.14;57.92;101383.13;129045;1094;22355;-77
2021/06/03 04:38:44;;;;;;;19.45;15.90;;;;;;;13.23;57.67;101389.28;129020;1092;22327;-77
2021/06/03 04:41:14;;;;;;;18.10;15.15;;;;;;;13.33;57.94;101390.05;129029;1094;22349;-77
2021/06/03 04:43:44;;;;;;;19.83;15.43;;;;;;;13.42;57.33;101397.02;129163;1092;22326;-77
2021/06/03 04:46:14;;;;;;;27.23;15.18;;;;;;;13.55;57.47;101391.26;129022;1095;22362;-77
2021/06/03 04:48:44;;;;;;;17.18;14.00;;;;;;;13.66;57.02;101393.59;128742;1095;22332;-76
2021/06/03 04:51:13;;;;;;;21.08;15.00;;;;;;;13.76;56.60;101394.31;128577;1098;22345;-76
2021/06/03 04:53:43;;;;;;;18.98;14.13;;;;;;;13.90;56.35;101390.18;128614;1095;22346;-76
2021/06/03 04:56:13;;;;;;;16.90;13.60;;;;;;;14.04;55.91;101396.66;128627;1095;24367;-76
2021/06/03 04:58:43;;;;;;;17.93;12.48;;;;;;;14.21;55.73;101397.50;128542;1098;22780;-76
2021/06/03 05:01:13;;;;;;;14.08;12.70;;;;;;;14.38;56.00;101396.49;128618;1098;23164;-74
2021/06/03 05:03:43;;;;;;;21.77;14.48;;;;;;;14.57;55.20;101400.67;128593;1095;24300;-75
2021/06/03 05:06:13;;;;;;;20.90;13.65;;;;;;;14.80;54.93;101403.46;128696;1093;22361;-75
2021/06/03 05:08:43;;;;;;;15.23;12.80;;;;;;;15.02;54.70;101402.72;128607;1092;22354;-75
2021/06/03 05:11:13;;;;;;;20.70;13.38;;;;;;;15.25;54.21;101412.63;128679;1095;22364;-76
2021/06/03 05:13:43;;;;;;;17.70;12.18;;;;;;;15.46;53.56;101404.89;129060;1093;22447;-75
2021/06/03 05:16:12;;;;;;;16.50;11.43;;;;;;;15.69;53.06;101412.10;128658;1095;22361;-75
2021/06/03 05:18:42;;;;;;;17.23;10.98;;;;;;;15.93;52.95;101416.47;128647;1095;22358;-75
2021/06/03 05:21:12;;;;;;;13.93;10.23;;;;;;;16.17;52.39;101410.95;128691;1093;24478;-75
2021/06/03 05:23:42;;;;;;;14.48;10.10;;;;;;;16.45;51.86;101408.54;128598;1098;22374;-76
2021/06/03 05:26:11;;;;;;;12.73;9.58;;;;;;;16.68;50.96;101411.16;128608;1095;22342;-78
2021/06/03 05:28:41;;;;;;;11.95;9.88;;;;;;;16.94;51.00;101420.61;128601;1095;22348;-78
2021/06/03 05:31:11;;;;;;;13.23;9.20;;;;;;;17.21;50.48;101418.31;129070;1095;22357;-78
2021/06/03 05:33:40;;;;;;;12.05;9.25;;;;;;;17.50;49.95;101425.47;129029;1092;22351;-75
2021/06/03 05:36:10;;;;;;;14.20;7.40;;;;;;;17.76;48.93;101424.91;129092;1092;22327;-77
2021/06/03 05:38:40;;;;;;;12.40;7.80;;;;;;;18.09;48.37;101425.29;129090;1095;22351;-78
2021/06/03 05:41:09;;;;;;;11.53;8.05;;;;;;;18.41;46.99;101423.13;129014;1091;22351;-77
2021/06/03 05:43:39;;;;;;;10.05;6.48;;;;;;;18.72;45.83;101425.44;129021;1094;22362;-77
2021/06/03 05:46:08;;;;;;;13.00;6.60;;;;;;;19.07;45.31;101422.79;129060;1091;23195;-77
2021/06/03 05:48:38;;;;;;;7.98;6.45;;;;;;;19.44;44.81;101426.88;129069;1094;22469;-76
2021/06/03 05:51:08;;;;;;;11.13;7.23;;;;;;;19.85;43.86;101423.32;129004;1095;22360;-76
2021/06/03 05:53:37;;;;;;;10.55;6.10;;;;;;;20.29;42.87;101421.93;129009;1095;22345;-76
2021/06/03 05:56:07;;;;;;;10.88;6.75;;;;;;;20.68;42.00;101421.95;128980;1095;22339;-76
2021/06/03 05:58:37;;;;;;;7.88;6.38;;;;;;;21.03;40.93;101423.55;129025;1093;24469;-75
2021/06/03 06:01:06;;;;;;;7.75;5.73;;;;;;;21.38;40.80;101421.38;128985;1095;22797;-76
2021/06/03 06:03:44;;;;;;;7.70;5.28;;;;;;;21.70;39.95;101433.03;128720;1093;22328;-76
2021/06/03 06:09:04;;;;;;;6.78;5.23;;;;;;;22.32;38.88;101427.88;128588;1098;22371;-77
2021/06/03 06:11:36;;;;;;;5.93;4.35;;;;;;;22.69;37.94;101431.51;128654;1095;22357;-76
2021/06/03 06:14:07;;;;;;;4.83;3.85;;;;;;;22.97;36.93;101433.73;128621;1095;25109;-75
2021/06/03 06:16:37;;;;;;;;;;;;;;;23.23;36.39;101434.49;128668;1098;23233;-75
2021/06/03 06:19:09;;;;;;;6.55;3.83;;;;;;;23.60;36.57;101435.27;128688;1095;21312;-75
2021/06/03 06:21:39;;;;;;;9.13;3.80;;;;;;;23.93;34.76;101439.41;128723;1093;22350;-76
2021/06/03 06:24:09;;;;;;;5.48;3.10;;;;;;;24.09;33.99;101443.31;128689;1092;22451;-76
2021/06/03 06:26:38;;;;;;;12.25;3.93;;;;;;;24.24;33.74;101442.89;129083;1094;22430;-76
2021/06/03 06:29:08;;;;;;;14.15;3.60;;;;;;;24.37;32.43;101440.80;129008;1094;22326;-76
2021/06/03 06:31:38;;;;;;;7.33;3.80;;;;;;;24.54;32.43;101440.13;129034;1095;22351;-76
2021/06/03 06:34:08;;;;;;;10.38;4.10;;;;;;;24.67;31.80;101439.09;129070;1092;23183;-77
2021/06/03 06:36:37;;;;;;;5.70;3.75;;;;;;;24.96;32.27;101439.98;129008;1090;24460;-77
2021/06/03 06:39:07;;;;;;;7.50;3.63;;;;;;;25.28;31.63;101441.25;129057;1092;22339;-77
2021/06/03 06:41:41;;;;;;;6.15;3.68;;;;;;;25.53;31.14;101449.07;129040;1091;24944;-77
2021/06/03 06:44:11;;;;;;;5.33;3.30;;;;;;;25.95;30.33;101456.09;129056;1094;22337;-74
2021/06/03 06:46:41;;;;;;;6.43;3.40;;;;;;;26.26;29.97;101457.46;128676;1095;22331;-76
2021/06/03 06:49:11;;;;;;;5.28;2.63;;;;;;;26.60;29.10;101455.59;129009;1095;22364;-76
2021/06/03 06:51:41;;;;;;;10.20;3.70;;;;;;;26.87;28.54;101463.03;128734;1095;22450;-75
2021/06/03 06:54:13;;;;;;;6.35;3.15;;;;;;;26.87;28.01;101461.13;128721;1095;23287;-77
2021/06/03 06:56:43;;;;;;;8.18;3.40;;;;;;;26.90;27.80;101459.82;129020;1095;22352;-77
2021/06/03 06:59:13;;;;;;;8.98;2.85;;;;;;;27.04;27.58;101462.98;129047;1095;22924;-76
2021/06/03 07:01:43;;;;;;;4.53;2.90;;;;;;;27.23;27.04;101458.13;128659;1094;22363;-77
2021/06/03 07:04:12;;;;;;;6.70;3.40;;;;;;;27.41;27.16;101464.03;129026;1095;22954;-76
2021/06/03 07:06:43;;;;;;;6.18;3.38;;;;;;;27.51;26.45;101457.91;128710;1093;22367;-76
2021/06/03 07:09:12;;;;;;;4.18;2.88;;;;;;;27.51;26.71;101459.80;128684;1095;23375;-77
2021/06/03 07:11:42;;;;;;;3.57;2.60;;;;;;;27.65;26.23;101464.57;129129;1090;22332;-76
2021/06/03 07:14:16;;;;;;;5.60;3.00;;;;;;;27.67;26.11;101461.61;129172;1092;22363;-79
2021/06/03 07:16:46;;;;;;;3.53;2.90;;;;;;;27.55;25.93;101469.88;129113;1092;23068;-77
2021/06/03 07:19:16;;;;;;;5.90;3.30;;;;;;;27.34;25.75;101468.02;129124;1093;22941;-78
2021/06/03 07:21:45;;;;;;;3.60;2.65;;;;;;;27.20;25.41;101467.58;129082;1093;22427;-76
2021/06/03 07:24:15;;;;;;;7.78;2.28;;;;;;;27.28;25.42;101469.02;129103;1092;22347;-76
2021/06/03 07:26:45;;;;;;;6.83;2.93;;;;;;;27.50;25.30;101469.84;129154;1091;24453;-76
2021/06/03 07:29:15;;;;;;;5.48;3.28;;;;;;;27.52;24.84;101475.81;129483;1092;22716;-77
2021/06/03 07:31:45;;;;;;;8.68;2.80;;;;;;;27.49;24.92;101468.22;129085;1092;22316;-76
2021/06/03 07:34:14;;;;;;;5.98;2.90;;;;;;;27.54;25.40;101468.25;129466;1090;25048;-76
2021/06/03 07:36:44;;;;;;;8.75;3.23;;;;;;;27.38;25.05;101463.72;129034;1093;24849;-77
2021/06/03 07:39:14;;;;;;;4.68;2.88;;;;;;;27.34;25.56;101465.30;128651;1095;22354;-76
2021/06/03 07:41:44;;;;;;;2.88;1.73;;;;;;;27.25;24.40;101474.95;128684;1095;22661;-77
2021/06/03 07:44:14;;;;;;;5.55;2.55;;;;;;;27.16;24.44;101464.55;128731;1095;22352;-76
2021/06/03 07:46:44;;;;;;;6.75;2.98;;;;;;;27.39;23.89;101459.92;129052;1091;24223;-77
2021/06/03 07:49:14;;;;;;;7.53;1.93;;;;;;;27.54;23.47;101470.97;129042;1092;22402;-77
2021/06/03 07:51:44;;;;;;;4.43;2.15;;;;;;;27.61;23.05;101459.91;128990;1092;24230;-76
2021/06/03 07:54:14;;;;;;;4.05;2.20;;;;;;;27.63;23.30;101460.49;129053;1092;22332;-76
2021/06/03 07:56:43;;;;;;;4.18;1.85;;;;;;;27.68;22.80;101455.10;129454;1092;22348;-78
2021/06/03 07:59:13;;;;;;;3.75;2.30;;;;;;;27.68;22.85;101446.96;129021;1094;22325;-77
2021/06/03 08:01:43;;;;;;;4.40;2.43;;;;;;;27.71;22.92;101451.06;129077;1092;22340;-81
2021/06/03 08:04:12;;;;;;;4.10;2.88;;;;;;;27.81;22.80;101452.02;129122;1090;22424;-77
2021/06/03 08:06:42;;;;;;;4.73;2.40;;;;;;;27.82;22.71;101450.11;129143;1094;22442;-76
2021/06/03 08:09:12;;;;;;;3.65;1.73;;;;;;;27.74;22.51;101455.98;129118;1092;22320;-77
2021/06/03 08:11:44;;;;;;;5.83;1.78;;;;;;;27.59;22.18;101452.05;129042;1095;22329;-77
2021/06/03 08:14:14;;;;;;;3.88;2.05;;;;;;;27.53;23.23;101466.63;129121;1092;22464;-77
2021/06/03 08:16:44;;;;;;;3.67;2.00;;;;;;;27.39;22.12;101460.77;129520;1090;24198;-77
2021/06/03 08:19:16;;;;;;;4.88;1.95;;;;;;;27.24;22.70;101463.28;129034;1093;22421;-76
2021/06/03 08:21:48;;;;;;;2.58;1.53;;;;;;;27.39;22.08;101454.50;129125;1090;22334;-77
2021/06/03 08:24:17;;;;;;;5.93;1.45;;;;;;;27.52;22.45;101456.01;129124;1092;22424;-76
2021/06/03 08:26:50;;;;;;;3.75;2.60;;;;;;;27.62;21.94;101458.83;129534;1092;22360;-77
2021/06/03 08:29:21;;;;;;;3.65;1.60;;;;;;;27.72;22.12;101455.41;128686;1095;22330;-77
2021/06/03 08:31:52;;;;;;;5.00;1.80;;;;;;;27.93;21.98;101454.59;129016;1093;24545;-76
2021/06/03 08:34:22;;;;;;;2.33;1.53;;;;;;;28.30;21.70;101451.11;128595;1098;22353;-76
2021/06/03 08:36:52;;;;;;;5.60;1.60;;;;;;;28.29;21.39;101446.73;128611;1098;22360;-76
2021/06/03 08:39:21;;;;;;;3.03;1.60;;;;;;;28.21;21.88;101449.94;128633;1095;23205;-74
2021/06/03 08:41:53;;;;;;;3.88;1.68;;;;;;;27.96;22.28;101447.80;128549;1095;24240;-75
2021/06/03 08:44:23;;;;;;;6.45;1.80;;;;;;;27.76;22.16;101453.81;128653;1098;22364;-76
2021/06/03 08:46:53;;;;;;;4.50;2.03;;;;;;;27.47;21.99;101451.35;128816;1098;22414;-77
2021/06/03 08:49:23;;;;;;;3.78;1.90;;;;;;;27.27;22.23;101448.40;128685;1095;22366;-76
2021/06/03 08:51:54;;;;;;;3.53;1.80;;;;;;;27.17;22.28;101457.23;128658;1095;22351;-76
2021/06/03 08:54:24;;;;;;;5.63;2.00;;;;;;;27.17;22.36;101447.20;129019;1092;22374;-77
2021/06/03 08:56:54;;;;;;;3.48;1.38;;;;;;;27.49;22.67;101456.52;128974;1095;22511;-77
2021/06/03 08:59:24;;;;;;;4.98;1.53;;;;;;;27.76;22.21;101457.41;129041;1091;22359;-76
2021/06/03 09:01:54;;;;;;;4.75;2.03;;;;;;;27.88;21.91;101455.34;129041;1095;22809;-76
2021/06/03 09:04:24;;;;;;;2.43;1.40;;;;;;;27.62;21.57;101456.96;129040;1094;22708;-77
2021/06/03 09:06:54;;;;;;;4.55;2.10;;;;;;;27.53;21.35;101453.05;129025;1094;22386;-77
2021/06/03 09:09:29;;;;;;;3.58;1.85;;;;;;;27.76;21.27;101453.81;129052;1092;24228;-77
2021/06/03 09:12:15;;;;;;;9.95;2.15;;;;;;;28.08;21.14;101451.18;129054;1094;22367;-78
2021/06/03 09:14:45;;;;;;;4.35;1.45;;;;;;;28.03;21.20;101449.25;129013;1092;22410;-79
2021/06/03 09:17:15;;;;;;;4.25;1.65;;;;;;;27.90;21.57;101442.34;129156;1092;24489;-75
2021/06/03 09:19:54;;;;;;;4.70;1.80;;;;;;;27.99;21.03;101437.27;129028;1095;22781;-76
2021/06/03 09:22:42;;;;;;;5.68;2.43;;;;;;;27.85;21.76;101438.74;129099;1094;22315;-74
2021/06/03 09:25:37;;;;;;;3.08;1.65;;;;;;;27.84;21.54;101440.64;129124;1095;22322;-77
2021/06/03 09:28:31;;;;;;;6.43;1.78;;;;;;;27.46;21.69;101455.15;129036;1094;22436;-76
2021/06/03 09:31:36;;;;;;;2.70;1.73;;;;;;;26.91;21.80;101453.31;129052;1092;24541;-76
2021/06/03 09:34:14;;;;;;;4.60;2.40;;;;;;;26.72;22.28;101450.91;128630;1095;24874;-76
2021/06/03 09:36:52;;;;;;;4.73;1.93;;;;;;;26.70;22.36;101458.45;128677;1098;22366;-76
2021/06/03 09:39:35;;;;;;;6.55;2.15;;;;;;;26.71;22.28;101449.24;128680;1095;22515;-78
2021/06/03 09:42:11;;;;;;;3.50;1.90;;;;;;;26.50;22.23;101445.41;128703;1098;22351;-77
2021/06/03 09:44:49;;;;;;;7.43;2.03;;;;;;;26.54;23.12;101443.02;128609;1096;22373;-76
2021/06/03 09:47:41;;;;;;;3.15;1.70;;;;;;;26.67;22.98;101439.97;128569;1098;22370;-78
2021/06/03 09:50:11;;;;;;;6.55;2.55;;;;;;;26.70;22.93;101442.19;128360;1098;23344;-79
2021/06/03 09:52:44;;;;;;;8.98;2.60;;;;;;;26.64;22.82;101443.18;128346;1101;22333;-78
2021/06/03 09:55:15;;;;;;;6.05;2.05;;;;;;;26.60;22.98;101443.94;128328;1097;24361;-77
2021/06/03 09:57:45;;;;;;;5.13;2.98;;;;;;;26.36;22.92;101444.08;128387;1098;22468;-78
2021/06/03 10:00:22;;;;;;;3.28;2.35;;;;;;;26.05;23.06;101443.55;128305;1098;22362;-79
2021/06/03 10:03:01;;;;;;;3.83;2.30;;;;;;;26.01;23.79;101439.70;128235;1101;23298;-77
2021/06/03 10:05:31;;;;;;;4.73;1.93;;;;;;;26.14;23.66;101433.15;128301;1097;22352;-77
2021/06/03 10:08:05;;;;;;;3.80;2.10;;;;;;;26.32;24.09;101433.97;128270;1095;24502;-77
2021/06/03 10:10:39;;;;;;;12.05;3.95;;;;;;;26.45;24.07;101449.89;128715;1096;22440;-77
2021/06/03 10:13:12;;;;;;;6.50;2.18;;;;;;;26.39;23.57;101440.03;128612;1098;22443;-79
2021/06/03 10:15:44;;;;;;;4.20;2.30;;;;;;;26.42;23.47;101434.13;128312;1099;22356;-78
2021/06/03 10:18:16;;;;;;;7.48;2.53;;;;;;;26.36;23.44;101432.40;128633;1095;24773;-77
2021/06/03 10:20:53;;;;;;;8.05;2.63;;;;;;;26.29;23.47;101429.86;128318;1099;22435;-75
2021/06/03 10:23:29;;;;;;;4.10;2.18;;;;;;;26.16;23.50;101428.31;128367;1095;24153;-74
2021/06/03 10:26:06;;;;;;;5.48;2.20;;;;;;;25.95;23.41;101434.44;128240;1101;22341;-75
2021/06/03 10:28:35;;;;;;;3.53;1.93;;;;;;;25.66;23.73;101426.33;128348;1095;23383;-75
2021/06/03 10:31:11;;;;;;;7.75;2.55;;;;;;;25.65;23.72;101421.14;128296;1095;24993;-75
2021/06/03 10:33:42;;;;;;;4.63;2.17;;;;;;;25.66;23.96;101420.91;128582;1098;22358;-75
2021/06/03 10:36:13;;;;;;;4.50;2.10;;;;;;;25.61;24.07;101418.09;128372;1095;24502;-74
2021/06/03 10:38:43;;;;;;;3.53;2.23;;;;;;;25.53;23.71;101419.31;128299;1095;22411;-74
2021/06/03 10:41:13;;;;;;;5.20;1.93;;;;;;;25.63;23.60;101420.58;128563;1098;22423;-74
2021/06/03 10:43:43;;;;;;;3.07;1.93;;;;;;;25.65;23.70;101416.55;128276;1098;22355;-74
2021/06/03 10:46:13;;;;;;;3.78;1.80;;;;;;;25.66;23.55;101415.50;128564;1098;22355;-75
2021/06/03 10:48:43;;;;;;;4.90;1.60;;;;;;;25.56;23.52;101420.72;128603;1098;22671;-75
2021/06/03 10:51:12;;;;;;;4.95;2.35;;;;;;;25.43;23.51;101416.41;128821;1095;22662;-74
2021/06/03 10:53:46;;;;;;;5.33;2.03;;;;;;;25.35;23.94;101408.66;128948;1095;22431;-74
2021/06/03 10:56:22;;;;;;;5.48;2.38;;;;;;;25.46;24.23;101415.09;128996;1095;22348;-73
2021/06/03 10:58:53;;;;;;;5.85;2.00;;;;;;;25.31;24.08;101408.33;128967;1095;22329;-75
2021/06/03 11:01:24;;;;;;;2.48;1.73;;;;;;;25.09;24.28;101408.14;128977;1095;22841;-75
2021/06/03 11:03:59;;;;;;;;;;;;;;;24.69;23.75;101408.05;128973;1093;22333;-74
2021/06/03 11:06:41;;;;;;;3.87;1.97;;;;;;;24.37;25.00;101411.08;128975;1094;21257;-73
2021/06/03 11:09:11;;;;;;;3.08;1.70;;;;;;;24.15;24.92;101415.39;129125;1095;22333;-74
2021/06/03 11:11:45;;;;;;;3.10;1.88;;;;;;;23.92;24.81;101408.06;128977;1095;22386;-75
2021/06/03 11:14:17;;;;;;;5.95;2.00;;;;;;;23.79;25.07;101400.16;129041;1093;23975;-75
2021/06/03 11:16:55;;;;;;;5.25;2.68;;;;;;;23.81;24.97;101409.68;129132;1092;22329;-75
2021/06/03 11:19:30;;;;;;;3.08;1.95;;;;;;;23.84;25.28;101393.03;129124;1092;22324;-76
2021/06/03 11:22:04;;;;;;;3.30;1.70;;;;;;;23.87;25.30;101403.37;129534;1091;22426;-76
2021/06/03 11:24:34;;;;;;;6.10;2.35;;;;;;;23.89;25.28;101403.97;129120;1092;22430;-75
2021/06/03 11:27:14;;;;;;;2.38;1.65;;;;;;;23.86;25.50;101400.91;129472;1091;22336;-74
2021/06/03 11:29:54;;;;;;;3.23;1.83;;;;;;;23.81;25.40;101392.67;129120;1092;22846;-75
2021/06/03 11:32:29;;;;;;;5.10;2.10;;;;;;;23.79;25.27;101389.38;129486;1092;22421;-74
2021/06/03 11:35:02;;;;;;;5.60;1.70;;;;;;;23.85;25.69;101378.48;129122;1092;22333;-74